SKBG/BGA METAR and TAF weather

Enter ICAO airport designator
Station Type Date Time Source
SKBG METAR 2019/02/23 00:00 UTC NOAA

SKBG 230000Z 29003KT 9999 FEW015 BKN070 23/20 A2995


Station Type Date Time Source
SKBG Decoded METAR 2019/02/23 00:00 UTC NOAA

Bucaramanga / Palonegro, Colombia (SKBG) 07-06N 073-12W
Feb 22, 2019 - 07:00 PM EST / 2019.02.23 0000 UTC
Wind: from the WNW (290 degrees) at 3 MPH (3 KT):0
Visibility: greater than 7 mile(s):0
Sky conditions: mostly cloudy
Temperature: 73 F (23 C)
Dew Point: 68 F (20 C)
Relative Humidity: 83%
Pressure (altimeter): 29.95 in. Hg (1014 hPa)
ob: SKBG 230000Z 29003KT 9999 FEW015 BKN070 23/20 A2995
cycle: 0

Station Type Date Time Source
SKBG TAF 2019/02/22 18:42 UTC NOAA

TAF TAF SKBG 221700Z 2218/2318 32005KT 9999 FEW015 SCT070
TEMPO 2308/2315 16005KT TX28/2219Z TN18/2311Z


Example: see airport list